Time;durP1;ratioP1;P1;durP2;ratioP2;P2;SDS_P1;SDS_P2;PMS_P1;PMS_P2;Temp;Humidity;BMP_temperature;BMP_pressure;BME280_temperature;BME280_humidity;BME280_pressure;Samples;Min_cycle;Max_cycle;Signal;HPM_P1;HPM_P2
2021/11/25 00:00:41;;;;;;;6.70;3.30;;;3.90;79.50;;;;;;5016927;28;20037;-69
2021/11/25 00:03:11;;;;;;;7.80;4.35;;;3.90;79.60;;;;;;5020130;28;20045;-69
2021/11/25 00:05:38;;;;;;;9.13;3.35;;;3.90;79.70;;;;;;5019868;28;20037;-69
2021/11/25 00:08:08;;;;;;;6.45;3.15;;;3.90;79.60;;;;;;5018860;28;20108;-68
2021/11/25 00:10:42;;;;;;;9.27;3.25;;;3.90;79.80;;;;;;5017387;28;20469;-69
2021/11/25 00:13:11;;;;;;;6.75;3.90;;;3.90;79.90;;;;;;5023248;28;20328;-69
2021/11/25 00:15:38;;;;;;;6.95;3.67;;;4.00;79.90;;;;;;5026081;28;20085;-69
2021/11/25 00:18:05;;;;;;;9.85;3.72;;;4.00;79.80;;;;;;5016781;28;20119;-70
2021/11/25 00:20:32;;;;;;;6.55;3.88;;;4.00;79.80;;;;;;5019359;28;20120;-69
2021/11/25 00:22:59;;;;;;;7.30;3.70;;;4.00;79.80;;;;;;5022001;28;20050;-69
2021/11/25 00:25:27;;;;;;;8.20;3.58;;;4.00;79.90;;;;;;5018734;28;20060;-71
2021/11/25 00:27:54;;;;;;;5.50;3.25;;;4.00;79.90;;;;;;5019479;28;20045;-71
2021/11/25 00:30:22;;;;;;;7.63;4.20;;;4.10;79.90;;;;;;5019039;28;20065;-69
2021/11/25 00:32:49;;;;;;;11.25;4.53;;;4.00;80.00;;;;;;5027175;28;20475;-70
2021/11/25 00:35:16;;;;;;;10.95;3.28;;;4.10;80.00;;;;;;5028037;28;20034;-71
2021/11/25 00:37:44;;;;;;;6.70;3.10;;;4.10;80.00;;;;;;5025308;28;20438;-68
2021/11/25 00:40:13;;;;;;;7.78;3.20;;;4.10;79.90;;;;;;5022654;28;20049;-67
2021/11/25 00:42:40;;;;;;;6.77;2.80;;;4.10;80.00;;;;;;5028060;28;20454;-70
2021/11/25 00:45:09;;;;;;;7.30;3.13;;;4.10;80.10;;;;;;5028336;28;20395;-69
2021/11/25 00:47:37;;;;;;;9.82;4.13;;;4.10;80.20;;;;;;5024964;28;20064;-67
2021/11/25 00:50:05;;;;;;;7.72;3.65;;;4.10;80.10;;;;;;5020714;28;20520;-68
2021/11/25 00:52:33;;;;;;;6.97;3.47;;;4.10;80.30;;;;;;5021188;28;20061;-70
2021/11/25 00:54:59;;;;;;;6.85;2.67;;;4.10;80.20;;;;;;5023354;28;20411;-68
2021/11/25 00:57:27;;;;;;;6.82;3.05;;;4.10;80.20;;;;;;5027409;28;20037;-68
2021/11/25 00:59:54;;;;;;;5.25;2.42;;;4.10;80.20;;;;;;5022599;28;20059;-69
2021/11/25 01:02:21;;;;;;;6.03;3.05;;;4.10;80.10;;;;;;5017935;28;20053;-68
2021/11/25 01:04:50;;;;;;;6.43;2.75;;;4.10;80.10;;;;;;5021161;28;20048;-70
2021/11/25 01:07:16;;;;;;;6.95;2.92;;;4.10;80.10;;;;;;5020357;28;20406;-70
2021/11/25 01:09:43;;;;;;;5.57;2.67;;;4.10;80.10;;;;;;5018693;28;20045;-69
2021/11/25 01:12:12;;;;;;;5.88;2.72;;;4.10;80.20;;;;;;5017477;28;20041;-70
2021/11/25 01:14:39;;;;;;;6.38;2.97;;;4.10;80.20;;;;;;5020518;28;20403;-70
2021/11/25 01:17:07;;;;;;;7.95;3.20;;;4.20;80.20;;;;;;5019433;28;20060;-69
2021/11/25 01:19:34;;;;;;;5.75;2.95;;;4.10;80.20;;;;;;5020444;28;20475;-69
2021/11/25 01:22:03;;;;;;;4.95;2.97;;;4.20;80.20;;;;;;5020811;28;20141;-69
2021/11/25 01:24:31;;;;;;;8.15;3.08;;;4.20;80.20;;;;;;5019670;28;20431;-70
2021/11/25 01:26:59;;;;;;;8.18;3.67;;;4.20;80.20;;;;;;5016646;28;20051;-71
2021/11/25 01:29:26;;;;;;;5.75;3.05;;;4.20;80.20;;;;;;5019513;28;20044;-70
2021/11/25 01:31:52;;;;;;;6.35;2.53;;;4.20;80.20;;;;;;5017732;28;20049;-70
2021/11/25 01:34:20;;;;;;;7.00;3.42;;;4.20;80.20;;;;;;5019225;28;20060;-70
2021/11/25 01:36:47;;;;;;;5.10;2.72;;;4.20;80.20;;;;;;5019386;28;20053;-67
2021/11/25 01:39:17;;;;;;;6.03;3.00;;;4.20;80.20;;;;;;5018111;28;21453;-70
2021/11/25 01:41:44;;;;;;;9.75;3.65;;;4.20;80.20;;;;;;5016100;28;20041;-70
2021/11/25 01:44:11;;;;;;;6.65;3.10;;;4.20;80.20;;;;;;5034168;28;20411;-69
2021/11/25 01:46:38;;;;;;;5.90;3.55;;;4.20;80.20;;;;;;5019783;28;20053;-70
2021/11/25 01:49:05;;;;;;;6.75;3.40;;;4.20;80.20;;;;;;5020311;28;20051;-69
2021/11/25 01:51:32;;;;;;;6.15;2.95;;;4.30;80.10;;;;;;5019147;28;20510;-69
2021/11/25 01:53:59;;;;;;;7.63;3.47;;;4.30;80.00;;;;;;5018043;28;20049;-68
2021/11/25 01:56:28;;;;;;;5.45;3.05;;;4.40;79.90;;;;;;5021383;28;20049;-67
2021/11/25 01:58:55;;;;;;;12.40;4.30;;;4.40;79.90;;;;;;5016629;28;20053;-71
2021/11/25 02:01:23;;;;;;;9.95;4.63;;;4.40;79.70;;;;;;5016801;28;20044;-68
2021/11/25 02:03:54;;;;;;;9.85;4.07;;;4.40;79.50;;;;;;4998303;28;20057;-69
2021/11/25 02:06:21;;;;;;;9.15;5.00;;;4.40;79.40;;;;;;4996457;28;20058;-70
2021/11/25 02:08:48;;;;;;;8.50;3.72;;;4.40;79.30;;;;;;4996897;28;20042;-68
2021/11/25 02:11:15;;;;;;;10.45;3.78;;;4.40;79.10;;;;;;4999164;28;20042;-69
2021/11/25 02:13:43;;;;;;;10.68;4.35;;;4.40;79.00;;;;;;4989541;28;20056;-69
2021/11/25 02:16:11;;;;;;;10.65;5.35;;;4.40;78.90;;;;;;4996289;28;20519;-68
2021/11/25 02:18:38;;;;;;;10.75;4.32;;;4.40;78.70;;;;;;4989509;28;20077;-68
2021/11/25 02:21:06;;;;;;;11.93;5.53;;;4.40;78.60;;;;;;4988487;28;20500;-68
2021/11/25 02:23:33;;;;;;;10.07;4.68;;;4.40;78.40;;;;;;4996694;28;20054;-69
2021/11/25 02:26:01;;;;;;;10.15;4.82;;;4.50;78.30;;;;;;4989438;28;20046;-71
2021/11/25 02:28:37;;;;;;;9.57;4.47;;;4.50;78.00;;;;;;4987541;28;20488;-69
2021/11/25 02:31:07;;;;;;;11.90;5.35;;;4.50;77.90;;;;;;4989801;28;20411;-70
2021/11/25 02:33:34;;;;;;;8.30;4.22;;;4.50;77.80;;;;;;4999895;28;20058;-70
2021/11/25 02:36:01;;;;;;;9.00;3.25;;;4.50;77.80;;;;;;4999277;28;20054;-71
2021/11/25 02:38:30;;;;;;;9.80;4.30;;;4.50;77.80;;;;;;5000776;28;20054;-67
2021/11/25 02:40:58;;;;;;;11.48;4.90;;;4.50;77.90;;;;;;4998358;28;20053;-67
2021/11/25 02:43:27;;;;;;;10.73;4.22;;;4.60;77.90;;;;;;5004107;28;20056;-71
2021/11/25 02:45:55;;;;;;;8.57;4.30;;;4.60;77.80;;;;;;5000715;28;20049;-67
2021/11/25 02:48:25;;;;;;;8.93;4.75;;;4.60;77.70;;;;;;5003030;28;20396;-69
2021/11/25 02:50:53;;;;;;;7.22;3.75;;;4.60;77.70;;;;;;5001938;28;20072;-69
2021/11/25 02:53:21;;;;;;;9.90;4.00;;;4.50;77.30;;;;;;5001994;28;20046;-71
2021/11/25 02:55:50;;;;;;;9.38;4.75;;;4.60;77.30;;;;;;4979131;28;20372;-70
2021/11/25 02:58:18;;;;;;;10.25;4.88;;;4.50;77.30;;;;;;4985361;28;21020;-70
2021/11/25 03:00:47;;;;;;;10.25;4.88;;;4.60;77.40;;;;;;4985696;28;20050;-69
2021/11/25 03:03:17;;;;;;;11.20;5.23;;;4.60;77.20;;;;;;5003746;28;20483;-69
2021/11/25 03:05:47;;;;;;;9.80;4.47;;;4.60;77.30;;;;;;5004213;28;20058;-69
2021/11/25 03:08:15;;;;;;;11.88;5.75;;;4.60;77.10;;;;;;5000510;28;20056;-67
2021/11/25 03:10:44;;;;;;;12.43;5.38;;;4.60;77.00;;;;;;5002665;28;20057;-69
2021/11/25 03:13:16;;;;;;;12.18;4.85;;;4.60;76.90;;;;;;4996419;28;20145;-69
2021/11/25 03:15:43;;;;;;;11.48;4.65;;;4.60;76.70;;;;;;4999939;28;20053;-69
2021/11/25 03:18:11;;;;;;;10.20;5.05;;;4.60;76.80;;;;;;4995095;28;20058;-69
2021/11/25 03:20:41;;;;;;;12.43;5.47;;;4.60;76.80;;;;;;5001323;28;20144;-68
2021/11/25 03:23:09;;;;;;;11.20;4.47;;;4.60;76.80;;;;;;4999072;28;20053;-71
2021/11/25 03:25:37;;;;;;;10.32;4.45;;;4.60;76.80;;;;;;4997757;28;20054;-68
2021/11/25 03:28:05;;;;;;;9.05;4.68;;;4.60;76.80;;;;;;4999618;28;21061;-68
2021/11/25 03:30:35;;;;;;;10.70;5.50;;;4.60;76.70;;;;;;4995642;28;20049;-69
2021/11/25 03:33:02;;;;;;;11.68;5.05;;;4.60;76.60;;;;;;5001006;28;20050;-69
2021/11/25 03:35:33;;;;;;;16.67;5.70;;;4.60;76.70;;;;;;5000694;28;20432;-67
2021/11/25 03:38:00;;;;;;;11.35;4.88;;;4.60;76.60;;;;;;5000341;28;20517;-67
2021/11/25 03:40:28;;;;;;;8.82;4.45;;;4.60;76.60;;;;;;4998695;28;20077;-69
2021/11/25 03:42:56;;;;;;;10.75;4.35;;;4.60;76.80;;;;;;5000364;28;20064;-68
2021/11/25 03:45:23;;;;;;;9.02;3.92;;;4.60;76.70;;;;;;4998754;28;20068;-71
2021/11/25 03:47:51;;;;;;;12.40;5.07;;;4.60;76.70;;;;;;5003719;28;20054;-70
2021/11/25 03:50:18;;;;;;;10.73;4.85;;;4.60;76.70;;;;;;5002160;28;20062;-69
2021/11/25 03:52:45;;;;;;;11.60;5.18;;;4.60;76.70;;;;;;4999260;28;20050;-70
2021/11/25 03:55:14;;;;;;;12.40;5.78;;;4.60;76.90;;;;;;5001674;28;20058;-69
2021/11/25 03:57:41;;;;;;;15.55;6.38;;;4.60;76.70;;;;;;5002146;28;20046;-69
2021/11/25 04:00:11;;;;;;;9.02;4.93;;;4.60;76.60;;;;;;4998498;28;20072;-68
2021/11/25 04:02:41;;;;;;;12.65;5.28;;;4.60;76.70;;;;;;5012148;28;20048;-69
2021/11/25 04:05:11;;;;;;;10.93;5.03;;;4.60;76.60;;;;;;5021185;28;20073;-69
2021/11/25 04:07:38;;;;;;;10.90;5.22;;;4.60;76.60;;;;;;5021018;28;20510;-69
2021/11/25 04:10:06;;;;;;;14.48;5.68;;;4.60;76.50;;;;;;5019086;28;20048;-69
2021/11/25 04:12:33;;;;;;;10.60;5.15;;;4.60;76.40;;;;;;5015636;28;20049;-69
2021/11/25 04:15:00;;;;;;;11.40;5.40;;;4.60;76.40;;;;;;5021174;28;20053;-69
2021/11/25 04:17:33;;;;;;;11.20;5.40;;;4.60;76.40;;;;;;5020527;28;20445;-68
2021/11/25 04:20:00;;;;;;;11.68;5.15;;;4.60;76.50;;;;;;5019594;28;20061;-69
2021/11/25 04:22:31;;;;;;;12.63;5.25;;;4.70;76.70;;;;;;5022379;28;20147;-69
2021/11/25 04:24:58;;;;;;;10.63;5.15;;;4.60;76.70;;;;;;5015987;28;20060;-70
2021/11/25 04:27:25;;;;;;;11.60;6.70;;;4.60;76.70;;;;;;5017467;28;20050;-70
2021/11/25 04:30:00;;;;;;;13.25;5.68;;;4.60;76.80;;;;;;5017732;28;20050;-69
2021/11/25 04:35:29;;;;;;;11.15;5.70;;;4.60;76.60;;;;;;5020956;28;20049;-69
2021/11/25 04:37:59;;;;;;;9.10;4.33;;;4.60;76.60;;;;;;5021455;28;20101;-66
2021/11/25 04:40:28;;;;;;;11.68;5.22;;;4.60;76.50;;;;;;5020964;28;20045;-66
2021/11/25 04:42:55;;;;;;;12.18;6.25;;;4.60;76.40;;;;;;5019276;28;20072;-69
2021/11/25 04:45:21;;;;;;;13.70;6.47;;;4.60;76.40;;;;;;5020654;28;20045;-69
2021/11/25 04:47:48;;;;;;;12.27;5.55;;;4.60;76.50;;;;;;5021774;28;20388;-70
2021/11/25 04:50:17;;;;;;;12.55;6.13;;;4.60;76.60;;;;;;5013688;28;20045;-69
2021/11/25 04:52:44;;;;;;;12.07;4.80;;;4.60;76.50;;;;;;5018011;28;20402;-67
2021/11/25 04:55:12;;;;;;;11.80;5.82;;;4.60;76.60;;;;;;5019957;28;20053;-68
2021/11/25 04:57:44;;;;;;;14.70;5.75;;;4.60;76.50;;;;;;5021056;28;20118;-69
2021/11/25 05:00:13;;;;;;;15.93;6.28;;;4.60;76.40;;;;;;5018418;28;20057;-70
2021/11/25 05:02:41;;;;;;;12.60;5.47;;;4.60;76.30;;;;;;5004692;28;20752;-68
2021/11/25 05:05:08;;;;;;;13.05;5.88;;;4.60;76.10;;;;;;4990481;28;20056;-68
2021/11/25 05:07:35;;;;;;;10.98;5.45;;;4.60;75.90;;;;;;4993917;28;20205;-69
2021/11/25 05:10:02;;;;;;;11.27;5.55;;;4.60;75.80;;;;;;4976864;28;20054;-70
2021/11/25 05:12:36;;;;;;;11.38;5.03;;;4.60;75.70;;;;;;4990340;28;20058;-67
2021/11/25 05:15:05;;;;;;;10.73;4.97;;;4.60;75.60;;;;;;4994571;28;20646;-69
2021/11/25 05:17:32;;;;;;;10.68;5.00;;;4.60;75.50;;;;;;4988701;28;20541;-68
2021/11/25 05:19:59;;;;;;;12.35;5.60;;;4.50;75.30;;;;;;4989891;28;20058;-69
2021/11/25 05:22:25;;;;;;;13.18;5.40;;;4.60;75.40;;;;;;4991410;28;20061;-68
2021/11/25 05:24:52;;;;;;;10.60;5.13;;;4.60;75.40;;;;;;4992049;28;20049;-66
2021/11/25 05:27:19;;;;;;;13.90;5.43;;;4.60;75.40;;;;;;4987659;28;20668;-70
2021/11/25 05:29:48;;;;;;;8.90;4.43;;;4.60;75.50;;;;;;4993969;28;20058;-68
2021/11/25 05:32:16;;;;;;;13.20;5.97;;;4.60;75.50;;;;;;4997104;28;20046;-70
2021/11/25 05:34:45;;;;;;;11.57;5.40;;;4.60;75.50;;;;;;4997940;28;20419;-70
2021/11/25 05:37:12;;;;;;;11.73;5.30;;;4.60;75.50;;;;;;4996749;28;20050;-69
2021/11/25 05:39:41;;;;;;;9.48;4.15;;;4.60;75.40;;;;;;4999499;28;20116;-69
2021/11/25 05:42:08;;;;;;;11.95;5.07;;;4.60;75.50;;;;;;4991686;28;20054;-69
2021/11/25 05:44:36;;;;;;;11.52;5.00;;;4.60;75.50;;;;;;4999104;28;20558;-69
2021/11/25 05:47:05;;;;;;;14.27;5.72;;;4.60;75.60;;;;;;4985580;28;20051;-67
2021/11/25 05:49:35;;;;;;;9.95;4.57;;;4.70;75.70;;;;;;4997973;28;20049;-69
2021/11/25 05:52:02;;;;;;;11.90;5.60;;;4.60;75.60;;;;;;4992881;28;20050;-70
2021/11/25 05:54:29;;;;;;;12.13;5.65;;;4.60;75.70;;;;;;4997985;28;20050;-70
2021/11/25 05:56:56;;;;;;;11.85;4.63;;;4.60;75.70;;;;;;4993733;28;20050;-69
2021/11/25 05:59:23;;;;;;;10.13;5.35;;;4.60;75.70;;;;;;4977036;28;20050;-69
2021/11/25 06:01:50;;;;;;;10.77;4.45;;;4.60;75.70;;;;;;4978993;28;20042;-70
2021/11/25 06:04:19;;;;;;;13.07;5.80;;;4.60;75.70;;;;;;4993237;28;20054;-69
2021/11/25 06:06:46;;;;;;;10.65;5.68;;;4.60;75.50;;;;;;4999982;28;20145;-69
2021/11/25 06:09:12;;;;;;;9.30;4.82;;;4.60;75.50;;;;;;4999461;28;20046;-69
2021/11/25 06:11:40;;;;;;;10.00;4.82;;;4.60;75.60;;;;;;5003199;28;20060;-68
2021/11/25 06:14:07;;;;;;;8.95;3.58;;;4.70;75.70;;;;;;4998966;28;20070;-67
2021/11/25 06:16:34;;;;;;;11.73;5.15;;;4.70;75.70;;;;;;4998619;28;20483;-68
2021/11/25 06:19:00;;;;;;;10.55;4.80;;;4.70;75.60;;;;;;5000760;28;20041;-71
2021/11/25 06:21:29;;;;;;;9.27;3.67;;;4.70;75.50;;;;;;4997119;28;20045;-69
2021/11/25 06:23:57;;;;;;;13.32;5.40;;;4.70;75.60;;;;;;4998435;28;20182;-68
2021/11/25 06:26:23;;;;;;;11.82;5.47;;;4.70;75.60;;;;;;5001693;28;20050;-67
2021/11/25 06:28:54;;;;;;;11.77;4.75;;;4.60;75.60;;;;;;4997384;28;20144;-67
2021/11/25 06:31:22;;;;;;;13.43;4.40;;;4.60;75.70;;;;;;4992887;28;20112;-68
2021/11/25 06:33:49;;;;;;;18.92;5.65;;;4.60;75.60;;;;;;4995966;28;20041;-68
2021/11/25 06:36:16;;;;;;;12.10;6.18;;;4.60;75.50;;;;;;4993196;28;20042;-68
2021/11/25 06:38:44;;;;;;;12.35;5.93;;;4.60;75.50;;;;;;4994406;28;20050;-68
2021/11/25 06:41:11;;;;;;;10.23;4.50;;;4.60;75.40;;;;;;4995053;28;20778;-69
2021/11/25 06:43:38;;;;;;;12.68;4.57;;;4.60;75.60;;;;;;4996900;28;20181;-70
2021/11/25 06:46:05;;;;;;;10.50;5.18;;;4.60;75.50;;;;;;4995827;28;20056;-67
2021/11/25 06:48:32;;;;;;;9.65;4.63;;;4.60;75.60;;;;;;5000746;28;20049;-68
2021/11/25 06:50:59;;;;;;;13.55;5.03;;;4.60;75.50;;;;;;4995278;28;20056;-69
2021/11/25 06:53:26;;;;;;;8.98;4.20;;;4.60;75.50;;;;;;4995628;28;20054;-68
2021/11/25 06:55:55;;;;;;;12.15;6.18;;;4.60;75.40;;;;;;4997281;28;20064;-69
2021/11/25 06:58:22;;;;;;;11.55;4.53;;;4.60;75.50;;;;;;4994783;28;20062;-71
2021/11/25 07:00:49;;;;;;;15.00;5.25;;;4.60;75.40;;;;;;4996956;28;20049;-70
2021/11/25 07:03:16;;;;;;;13.48;5.53;;;4.60;75.40;;;;;;5010363;28;20155;-68
2021/11/25 07:05:43;;;;;;;13.52;5.32;;;4.70;75.40;;;;;;5021265;28;20053;-71
2021/11/25 07:08:09;;;;;;;11.30;5.00;;;4.70;75.50;;;;;;5022436;28;20059;-71
2021/11/25 07:10:37;;;;;;;12.73;5.50;;;4.60;75.40;;;;;;5024060;28;20053;-70
2021/11/25 07:13:05;;;;;;;11.52;5.05;;;4.60;75.40;;;;;;5021465;28;20436;-70
2021/11/25 07:15:32;;;;;;;10.68;5.28;;;4.60;75.50;;;;;;5019165;28;20427;-70
2021/11/25 07:17:59;;;;;;;14.48;5.90;;;4.60;75.50;;;;;;5020165;28;20060;-72
2021/11/25 07:20:26;;;;;;;9.70;4.35;;;4.60;75.50;;;;;;5019964;28;20045;-70
2021/11/25 07:22:53;;;;;;;10.85;4.57;;;4.60;75.60;;;;;;5022346;28;20076;-69
2021/11/25 07:25:21;;;;;;;11.32;4.82;;;4.60;75.70;;;;;;5022503;28;20049;-70
2021/11/25 07:27:48;;;;;;;12.95;5.15;;;4.60;75.70;;;;;;5020887;28;20408;-70
2021/11/25 07:30:18;;;;;;;16.10;5.00;;;4.60;75.90;;;;;;5019527;28;20048;-70
2021/11/25 07:32:46;;;;;;;12.30;5.15;;;4.60;75.80;;;;;;5012956;28;20139;-70
2021/11/25 07:35:17;;;;;;;13.50;5.93;;;4.60;76.00;;;;;;5025912;28;20103;-71
2021/11/25 07:37:44;;;;;;;11.77;6.15;;;4.60;76.00;;;;;;5027455;28;20050;-69
2021/11/25 07:40:11;;;;;;;11.15;5.53;;;4.70;75.90;;;;;;5026327;28;20460;-70
2021/11/25 07:42:39;;;;;;;13.68;5.25;;;4.60;76.00;;;;;;5027565;28;20045;-70
2021/11/25 07:45:07;;;;;;;11.52;5.35;;;4.70;75.80;;;;;;5027617;28;20067;-69
2021/11/25 07:47:37;;;;;;;11.38;5.05;;;4.70;75.70;;;;;;5029049;28;20045;-68
2021/11/25 07:50:07;;;;;;;12.23;5.47;;;4.70;75.60;;;;;;5028685;28;20411;-70
2021/11/25 07:52:35;;;;;;;13.93;5.18;;;4.60;75.80;;;;;;5024531;28;20057;-70
2021/11/25 07:55:02;;;;;;;10.95;4.13;;;4.60;75.80;;;;;;5027788;28;20154;-72
2021/11/25 07:57:30;;;;;;;15.70;6.15;;;4.60;75.80;;;;;;5027195;28;20395;-71
2021/11/25 07:59:57;;;;;;;12.13;5.70;;;4.60;75.80;;;;;;5027404;28;20038;-70
2021/11/25 08:02:24;;;;;;;12.75;5.63;;;4.60;75.60;;;;;;5023537;28;20060;-70
2021/11/25 08:04:53;;;;;;;13.63;5.57;;;4.60;75.70;;;;;;5027607;28;20045;-71
2021/11/25 08:07:21;;;;;;;10.80;4.97;;;4.60;75.70;;;;;;5027534;28;20049;-70
2021/11/25 08:09:47;;;;;;;10.68;5.32;;;4.70;75.60;;;;;;5021662;28;20111;-69
2021/11/25 08:12:14;;;;;;;10.90;4.97;;;4.60;75.70;;;;;;5023720;28;20045;-69
2021/11/25 08:14:41;;;;;;;15.50;6.03;;;4.70;75.90;;;;;;5024104;28;20681;-68
2021/11/25 08:17:10;;;;;;;10.20;4.70;;;4.70;75.90;;;;;;5023630;28;20044;-68
2021/11/25 08:19:38;;;;;;;12.05;4.63;;;4.70;75.80;;;;;;5017320;28;20460;-69
2021/11/25 08:22:06;;;;;;;12.60;5.85;;;4.70;75.70;;;;;;5023101;28;20483;-70
2021/11/25 08:24:33;;;;;;;14.02;5.43;;;4.70;75.70;;;;;;5024079;28;20483;-68
2021/11/25 08:27:00;;;;;;;9.52;4.85;;;4.70;75.70;;;;;;5023352;28;20057;-70
2021/11/25 08:29:29;;;;;;;11.90;4.93;;;4.70;75.70;;;;;;5023542;28;20069;-67
2021/11/25 08:31:56;;;;;;;12.75;5.28;;;4.80;75.70;;;;;;5016675;28;20115;-71
2021/11/25 08:34:26;;;;;;;13.00;5.30;;;4.70;75.50;;;;;;5019566;28;20132;-67
2021/11/25 08:36:53;;;;;;;9.50;5.05;;;4.80;75.60;;;;;;5023245;28;20049;-68
2021/11/25 08:39:21;;;;;;;11.30;5.00;;;4.80;75.50;;;;;;5023054;28;20049;-69
2021/11/25 08:41:48;;;;;;;12.70;5.53;;;4.70;75.60;;;;;;5024271;28;20480;-71
2021/11/25 08:44:15;;;;;;;12.73;5.38;;;4.70;75.60;;;;;;5025849;28;20566;-70
2021/11/25 08:46:42;;;;;;;13.63;5.15;;;4.80;75.50;;;;;;5027010;28;20041;-70
2021/11/25 08:49:09;;;;;;;13.73;6.78;;;4.80;75.40;;;;;;5041687;28;20050;-70
2021/11/25 08:51:36;;;;;;;15.57;7.10;;;4.80;75.40;;;;;;5041896;28;20486;-69
2021/11/25 08:54:03;;;;;;;13.20;7.18;;;4.90;75.40;;;;;;5026428;28;20041;-69
2021/11/25 08:56:31;;;;;;;13.13;6.32;;;4.90;75.50;;;;;;5028526;28;20136;-69
2021/11/25 08:58:59;;;;;;;15.60;7.53;;;4.90;75.40;;;;;;5026658;28;20039;-71
2021/11/25 09:01:26;;;;;;;14.38;6.82;;;5.00;75.30;;;;;;5026158;28;20575;-66
2021/11/25 09:03:53;;;;;;;13.25;6.05;;;5.00;75.50;;;;;;5036988;28;20792;-66
2021/11/25 09:06:20;;;;;;;14.05;6.35;;;4.90;75.50;;;;;;5022104;28;20053;-66
2021/11/25 09:08:48;;;;;;;13.60;6.25;;;4.90;75.40;;;;;;5025093;28;20136;-67
2021/11/25 09:11:15;;;;;;;14.10;6.40;;;4.90;75.30;;;;;;5026355;28;20071;-65
2021/11/25 09:13:44;;;;;;;13.52;6.57;;;4.90;75.40;;;;;;5025096;28;20045;-66
2021/11/25 09:16:12;;;;;;;14.52;7.93;;;5.00;75.50;;;;;;5026333;28;23366;-65
2021/11/25 09:18:39;;;;;;;15.60;8.30;;;4.90;75.40;;;;;;5019816;28;20392;-65
2021/11/25 09:21:06;;;;;;;17.65;9.50;;;4.90;75.40;;;;;;5027442;28;20081;-67
2021/11/25 09:23:35;;;;;;;16.50;9.75;;;4.90;75.50;;;;;;5026497;28;20664;-66
2021/11/25 09:26:02;;;;;;;16.00;8.40;;;4.90;75.60;;;;;;5026625;28;20045;-66
2021/11/25 09:28:36;;;;;;;14.00;8.70;;;5.00;75.40;;;;;;5018109;28;20050;-65
2021/11/25 09:31:06;;;;;;;15.27;6.68;;;4.90;75.30;;;;;;5026494;28;20524;-66
2021/11/25 09:33:33;;;;;;;14.50;7.35;;;5.00;75.30;;;;;;5042892;28;20053;-67
2021/11/25 09:36:00;;;;;;;15.05;8.32;;;4.90;75.30;;;;;;5021986;28;20063;-66
2021/11/25 09:38:34;;;;;;;13.32;5.45;;;5.00;75.30;;;;;;5027132;28;20057;-66
2021/11/25 09:41:01;;;;;;;10.70;5.10;;;5.00;75.30;;;;;;5024810;28;20494;-64
2021/11/25 09:43:30;;;;;;;14.80;6.85;;;4.90;75.30;;;;;;5038210;28;20045;-65
2021/11/25 09:45:57;;;;;;;26.38;13.48;;;5.00;75.40;;;;;;5024565;28;20398;-65
2021/11/25 09:48:27;;;;;;;23.17;13.32;;;5.00;75.30;;;;;;5040711;28;20418;-65
2021/11/25 09:50:56;;;;;;;21.45;11.27;;;5.00;75.20;;;;;;5024565;28;20045;-66
2021/11/25 09:53:26;;;;;;;17.60;10.25;;;5.00;75.20;;;;;;5016594;28;20069;-66
2021/11/25 09:55:54;;;;;;;16.42;9.05;;;5.00;75.30;;;;;;5020323;28;20399;-66
2021/11/25 09:58:25;;;;;;;17.75;8.65;;;5.00;75.30;;;;;;5020449;28;20049;-65
2021/11/25 10:00:56;;;;;;;15.50;7.28;;;5.00;75.30;;;;;;5015779;28;20050;-66
2021/11/25 10:03:28;;;;;;;14.05;5.97;;;5.00;75.40;;;;;;5018577;28;20471;-66
2021/11/25 10:05:57;;;;;;;15.45;6.80;;;5.00;75.20;;;;;;5009068;28;20050;-66
2021/11/25 10:08:30;;;;;;;14.55;7.20;;;5.00;75.30;;;;;;5024020;28;20153;-66
2021/11/25 10:11:00;;;;;;;12.57;5.93;;;5.10;75.30;;;;;;5023354;28;20068;-66
2021/11/25 10:13:54;;;;;;;9.70;5.05;;;5.10;75.20;;;;;;5024116;28;20119;-65
2021/11/25 10:16:24;;;;;;;13.50;6.18;;;5.10;75.10;;;;;;5025727;28;20053;-66
2021/11/25 10:18:52;;;;;;;11.52;5.35;;;5.10;75.20;;;;;;5040567;28;20042;-65
2021/11/25 10:21:22;;;;;;;17.52;7.57;;;5.10;74.90;;;;;;5024568;28;20053;-66
2021/11/25 10:23:51;;;;;;;16.80;6.65;;;5.10;75.10;;;;;;5016326;28;20476;-65
2021/11/25 10:26:20;;;;;;;13.75;6.18;;;5.10;75.10;;;;;;5025549;28;20986;-66
2021/11/25 10:28:51;;;;;;;12.80;5.70;;;5.10;75.10;;;;;;5021800;28;20133;-67
2021/11/25 10:31:19;;;;;;;;;;;5.10;75.00;;;;;;5025601;28;20045;-65
2021/11/25 10:33:53;;;;;;;12.75;6.38;;;5.10;75.10;;;;;;5023447;28;19929;-65
2021/11/25 10:39:46;;;;;;;12.63;5.40;;;5.10;75.10;;;;;;5021594;28;20053;-65
2021/11/25 10:42:16;;;;;;;10.23;4.63;;;5.10;75.10;;;;;;5023130;28;20057;-66
2021/11/25 10:44:47;;;;;;;15.10;6.40;;;5.10;75.00;;;;;;5018059;28;20735;-65
2021/11/25 10:47:16;;;;;;;12.43;5.88;;;5.20;74.90;;;;;;5025613;28;20045;-65
2021/11/25 10:49:47;;;;;;;14.43;5.93;;;5.10;74.90;;;;;;5024784;28;20045;-66
2021/11/25 10:52:23;;;;;;;14.18;5.75;;;5.20;75.00;;;;;;5042464;28;20049;-65
2021/11/25 10:54:52;;;;;;;14.15;6.65;;;5.20;75.00;;;;;;5027726;28;20053;-66
2021/11/25 10:57:19;;;;;;;15.10;6.63;;;5.20;75.00;;;;;;5028485;28;20513;-65
2021/11/25 10:59:49;;;;;;;12.65;5.63;;;5.20;74.90;;;;;;5024647;28;20057;-65
2021/11/25 11:02:28;;;;;;;13.05;5.50;;;5.20;74.70;;;;;;5027637;28;20059;-65
2021/11/25 11:04:55;;;;;;;14.82;6.15;;;5.20;74.60;;;;;;5030305;28;20060;-65
2021/11/25 11:07:29;;;;;;;11.30;4.97;;;5.20;74.70;;;;;;5030002;28;20137;-66
2021/11/25 11:09:57;;;;;;;13.02;5.63;;;5.20;74.70;;;;;;5031079;28;20041;-67
2021/11/25 11:12:43;;;;;;;12.48;5.30;;;5.30;74.70;;;;;;5030892;28;20072;-66
2021/11/25 11:15:25;;;;;;;12.27;5.13;;;5.30;74.70;;;;;;5027979;28;20581;-66
2021/11/25 11:18:02;;;;;;;12.55;5.15;;;5.30;74.70;;;;;;5020315;28;20140;-66
2021/11/25 11:20:31;;;;;;;13.02;6.45;;;5.30;74.80;;;;;;5029994;28;20050;-66
2021/11/25 11:23:01;;;;;;;13.80;5.85;;;5.40;74.70;;;;;;5030149;28;20041;-65
2021/11/25 11:25:34;;;;;;;12.27;5.90;;;5.40;74.50;;;;;;5029630;28;20091;-67
2021/11/25 11:28:04;;;;;;;13.45;4.85;;;5.40;74.50;;;;;;5021513;28;20478;-66
2021/11/25 11:30:31;;;;;;;11.48;5.45;;;5.50;74.20;;;;;;5026741;28;20054;-64
2021/11/25 11:32:59;;;;;;;10.65;5.13;;;5.50;74.20;;;;;;5027924;28;20160;-67
2021/11/25 11:35:26;;;;;;;9.10;4.78;;;5.40;74.20;;;;;;5027578;28;20445;-66
2021/11/25 11:37:56;;;;;;;9.98;4.60;;;5.50;74.10;;;;;;5026916;28;20134;-66
2021/11/25 11:40:27;;;;;;;11.10;5.72;;;5.50;74.10;;;;;;5027343;28;20422;-66
2021/11/25 11:42:57;;;;;;;12.57;5.53;;;5.50;74.00;;;;;;5023321;28;20041;-67
2021/11/25 11:45:24;;;;;;;12.90;5.00;;;5.40;74.10;;;;;;5025640;28;20044;-65
2021/11/25 11:47:54;;;;;;;10.50;5.10;;;5.50;74.20;;;;;;5025206;28;20621;-65
2021/11/25 11:50:30;;;;;;;13.30;5.68;;;5.40;74.10;;;;;;5026613;28;20085;-66
2021/11/25 11:52:59;;;;;;;13.85;5.70;;;5.40;74.00;;;;;;5026843;28;20534;-66
2021/11/25 11:55:34;;;;;;;10.30;4.80;;;5.40;74.20;;;;;;5027503;28;20049;-65
2021/11/25 11:58:02;;;;;;;9.90;4.55;;;5.40;74.30;;;;;;5026794;28;20045;-66
2021/11/25 12:00:35;;;;;;;13.23;5.30;;;5.40;74.40;;;;;;5015053;28;20044;-65
2021/11/25 12:03:02;;;;;;;13.55;5.63;;;5.40;74.20;;;;;;5022919;28;20120;-66
2021/11/25 12:05:49;;;;;;;13.55;6.20;;;5.40;74.30;;;;;;5025556;28;20131;-65
2021/11/25 12:08:42;;;;;;;11.07;5.03;;;5.40;74.30;;;;;;5025689;28;20049;-66
2021/11/25 12:11:13;;;;;;;16.15;5.97;;;5.40;74.30;;;;;;5023539;28;20503;-65
2021/11/25 12:14:03;;;;;;;12.60;5.03;;;5.40;74.20;;;;;;5022104;28;20045;-67
2021/11/25 12:16:33;;;;;;;15.00;6.13;;;5.40;74.30;;;;;;5027623;28;20061;-65
2021/11/25 12:19:04;;;;;;;12.05;5.72;;;5.30;74.40;;;;;;5019823;28;20402;-66
2021/11/25 12:21:38;;;;;;;11.13;4.47;;;5.30;74.50;;;;;;5027411;28;20161;-67
2021/11/25 12:24:25;;;;;;;9.45;4.85;;;5.30;74.40;;;;;;5027296;28;20140;-66
2021/11/25 12:27:01;;;;;;;11.13;5.00;;;5.30;74.10;;;;;;5025979;28;20045;-67
2021/11/25 12:29:37;;;;;;;13.70;4.93;;;5.40;74.00;;;;;;5028276;28;20103;-67
2021/11/25 12:32:40;;;;;;;12.38;5.32;;;5.30;74.00;;;;;;5025767;28;20046;-66
2021/11/25 12:35:42;;;;;;;10.90;4.65;;;5.30;74.10;;;;;;4984363;28;20465;-66
2021/11/25 12:38:16;;;;;;;12.45;5.22;;;5.30;74.10;;;;;;5027497;28;20049;-66
2021/11/25 12:40:59;;;;;;;13.60;5.10;;;5.30;74.00;;;;;;5026531;28;20085;-66
2021/11/25 12:43:30;;;;;;;10.50;5.57;;;5.30;74.00;;;;;;5026458;28;20132;-68
2021/11/25 12:45:58;;;;;;;12.13;5.10;;;5.40;74.20;;;;;;5027988;28;21045;-65
2021/11/25 12:48:28;;;;;;;12.75;5.10;;;5.40;74.20;;;;;;5028071;28;20045;-65
2021/11/25 12:50:59;;;;;;;9.23;4.65;;;5.40;74.10;;;;;;5028117;28;20491;-66
2021/11/25 12:53:33;;;;;;;11.80;5.88;;;5.40;74.10;;;;;;5027907;28;20486;-66
2021/11/25 12:56:04;;;;;;;10.55;4.45;;;5.40;74.20;;;;;;5027021;28;20139;-68
2021/11/25 12:58:41;;;;;;;11.30;4.72;;;5.40;74.10;;;;;;5027196;28;20041;-65
2021/11/25 13:01:14;;;;;;;9.27;4.72;;;5.40;73.90;;;;;;5023797;28;20065;-65
2021/11/25 13:03:41;;;;;;;11.48;5.10;;;5.40;73.50;;;;;;5007780;28;20046;-66
2021/11/25 13:06:08;;;;;;;12.45;5.28;;;5.50;73.40;;;;;;5005063;28;20128;-67